createdAt,value
2019-03-24T00:02:04.073Z,12.90
2019-03-24T00:04:32.832Z,12.90
2019-03-24T00:07:01.334Z,12.80
2019-03-24T00:09:30.174Z,12.90
2019-03-24T00:11:59.142Z,12.90
2019-03-24T00:14:27.783Z,13.00
2019-03-24T00:16:56.728Z,13.10
2019-03-24T00:19:25.353Z,12.90
2019-03-24T00:21:54.057Z,13.00
2019-03-24T00:24:22.701Z,13.20
2019-03-24T00:26:51.513Z,13.40
2019-03-24T00:29:20.198Z,13.50
2019-03-24T00:31:48.935Z,13.50
2019-03-24T00:34:17.454Z,13.30
2019-03-24T00:36:46.245Z,13.40
2019-03-24T00:39:14.995Z,13.50
2019-03-24T00:41:43.606Z,13.50
2019-03-24T00:44:12.317Z,13.40
2019-03-24T00:46:41.106Z,13.40
2019-03-24T00:49:09.789Z,13.10
2019-03-24T00:51:38.351Z,13.00
2019-03-24T00:54:07.083Z,13.00
2019-03-24T00:56:35.736Z,12.90
2019-03-24T00:59:04.353Z,12.70
2019-03-24T01:01:33.259Z,12.60
2019-03-24T01:04:01.907Z,12.60
2019-03-24T01:06:30.578Z,12.80
2019-03-24T01:08:59.278Z,12.60
2019-03-24T01:11:27.935Z,12.60
2019-03-24T01:13:56.737Z,12.50
2019-03-24T01:16:25.680Z,12.50
2019-03-24T01:18:55.543Z,12.60
2019-03-24T01:21:24.224Z,12.70
2019-03-24T01:23:52.868Z,12.70
2019-03-24T01:26:21.491Z,12.80
2019-03-24T01:28:50.112Z,12.80
2019-03-24T01:31:18.814Z,12.70
2019-03-24T01:33:47.559Z,12.60
2019-03-24T01:36:16.280Z,12.60
2019-03-24T01:38:44.986Z,12.80
2019-03-24T01:41:13.605Z,12.70
2019-03-24T01:43:42.216Z,12.70
2019-03-24T01:46:11.036Z,12.60
2019-03-24T01:48:39.728Z,12.50
2019-03-24T01:51:08.343Z,12.40
2019-03-24T01:53:37.116Z,12.40
2019-03-24T01:56:06.204Z,12.40
2019-03-24T01:58:34.926Z,12.50
2019-03-24T02:01:03.859Z,12.50
2019-03-24T02:03:32.486Z,12.60
2019-03-24T02:06:01.274Z,12.60
2019-03-24T02:08:30.066Z,12.60
2019-03-24T02:10:58.728Z,12.70
2019-03-24T02:13:27.635Z,12.60
2019-03-24T02:15:56.491Z,12.50
2019-03-24T02:18:25.213Z,12.50
2019-03-24T02:20:53.910Z,12.60
2019-03-24T02:23:22.738Z,12.30
2019-03-24T02:25:51.305Z,12.30
2019-03-24T02:28:20.056Z,12.30
2019-03-24T02:30:48.903Z,12.40
2019-03-24T02:33:17.554Z,12.40
2019-03-24T02:35:46.114Z,12.40
2019-03-24T02:38:14.954Z,12.40
2019-03-24T02:40:43.605Z,12.40
2019-03-24T02:43:12.284Z,12.40
2019-03-24T02:45:41.047Z,12.40
2019-03-24T02:48:09.875Z,12.30
2019-03-24T02:50:38.580Z,12.30
2019-03-24T02:53:07.309Z,12.40
2019-03-24T02:55:35.956Z,12.30
2019-03-24T02:58:04.738Z,12.30
2019-03-24T03:00:33.523Z,12.30
2019-03-24T03:03:02.309Z,12.30
2019-03-24T03:05:30.849Z,12.30
2019-03-24T03:07:59.682Z,12.30
2019-03-24T03:10:28.424Z,12.40
2019-03-24T03:13:02.636Z,12.50
2019-03-24T03:15:31.416Z,12.50
2019-03-24T03:18:00.169Z,12.50
2019-03-24T03:20:28.896Z,12.60
2019-03-24T03:22:57.584Z,12.50
2019-03-24T03:25:26.193Z,12.60
2019-03-24T03:27:55.015Z,12.50
2019-03-24T03:30:23.741Z,12.50
2019-03-24T03:32:52.559Z,12.60
2019-03-24T03:35:21.396Z,12.60
2019-03-24T03:37:50.129Z,12.50
2019-03-24T03:40:18.818Z,12.60
2019-03-24T03:42:47.539Z,12.60
2019-03-24T03:45:25.392Z,12.50
2019-03-24T03:47:54.309Z,12.60
2019-03-24T03:50:22.848Z,12.80
2019-03-24T03:53:10.529Z,12.80
2019-03-24T03:55:39.269Z,13.00
2019-03-24T03:58:08.057Z,13.10
2019-03-24T04:00:37.009Z,12.90
2019-03-24T04:03:06.725Z,13.00
2019-03-24T04:05:35.544Z,12.70
2019-03-24T04:08:04.619Z,12.60
2019-03-24T04:10:33.364Z,12.60
2019-03-24T04:13:02.034Z,12.70
2019-03-24T04:15:30.630Z,12.70
2019-03-24T04:17:59.337Z,12.90
2019-03-24T04:20:27.962Z,12.90
2019-03-24T04:22:56.875Z,12.20
2019-03-24T04:25:25.634Z,11.80
2019-03-24T04:27:54.353Z,12.10
2019-03-24T04:30:23.158Z,12.40
2019-03-24T04:32:51.701Z,12.50
2019-03-24T04:35:20.499Z,12.60
2019-03-24T04:37:49.225Z,12.50
2019-03-24T04:40:17.844Z,12.40
2019-03-24T04:42:46.646Z,12.30
2019-03-24T04:45:34.148Z,12.20
2019-03-24T04:48:02.851Z,12.60
2019-03-24T04:50:31.551Z,12.70
2019-03-24T04:53:00.510Z,12.60
2019-03-24T04:55:29.102Z,12.70
2019-03-24T04:57:57.888Z,13.00
2019-03-24T05:00:37.405Z,13.00
2019-03-24T05:03:06.327Z,13.20
2019-03-24T05:05:35.127Z,13.10
2019-03-24T05:08:04.044Z,13.20
2019-03-24T05:10:32.703Z,13.20
2019-03-24T05:13:01.272Z,13.20
2019-03-24T05:15:30.026Z,13.10
2019-03-24T05:17:58.636Z,13.20
2019-03-24T05:20:27.444Z,13.30
2019-03-24T05:22:56.386Z,13.40
2019-03-24T05:25:25.021Z,13.40
2019-03-24T05:27:53.696Z,13.40
2019-03-24T05:30:22.434Z,13.50
2019-03-24T05:32:51.251Z,13.60
2019-03-24T05:35:19.940Z,13.50
2019-03-24T05:37:48.620Z,13.30
2019-03-24T05:40:17.415Z,13.30
2019-03-24T05:42:46.227Z,13.30
2019-03-24T05:45:15.174Z,13.10
2019-03-24T05:47:43.698Z,13.30
2019-03-24T05:50:12.259Z,13.40
2019-03-24T05:52:41.312Z,13.40
2019-03-24T05:55:09.988Z,13.40
2019-03-24T05:57:38.690Z,13.20
2019-03-24T06:00:07.798Z,13.40
2019-03-24T06:02:36.586Z,13.70
2019-03-24T06:05:05.999Z,13.70
2019-03-24T06:07:34.760Z,13.70
2019-03-24T06:10:03.853Z,13.80
2019-03-24T06:12:32.504Z,13.80
2019-03-24T06:15:01.198Z,14.10
2019-03-24T06:17:29.998Z,14.20
2019-03-24T06:19:58.553Z,14.30
2019-03-24T06:22:27.299Z,14.30
2019-03-24T06:24:55.821Z,14.50
2019-03-24T06:27:24.595Z,14.30
2019-03-24T06:29:53.443Z,14.50
2019-03-24T06:32:22.064Z,14.50
2019-03-24T06:34:50.745Z,14.60
2019-03-24T06:37:20.567Z,14.80
2019-03-24T06:39:49.352Z,15.80
2019-03-24T06:42:18.171Z,17.00
2019-03-24T06:44:46.786Z,18.10
2019-03-24T06:47:15.526Z,19.10
2019-03-24T06:49:44.145Z,20.20
2019-03-24T06:52:13.035Z,20.90
2019-03-24T06:54:41.650Z,21.90
2019-03-24T06:57:10.339Z,22.50
2019-03-24T06:59:39.203Z,23.10
2019-03-24T07:02:07.843Z,23.60
2019-03-24T07:04:36.412Z,24.00
2019-03-24T07:07:05.225Z,24.40
2019-03-24T07:09:33.880Z,24.90
2019-03-24T07:12:02.502Z,25.60
2019-03-24T07:14:31.317Z,25.70
2019-03-24T07:16:59.958Z,26.30
2019-03-24T07:19:28.715Z,26.50
2019-03-24T07:21:57.495Z,27.00
2019-03-24T07:24:27.380Z,27.00
2019-03-24T07:26:56.122Z,27.30
2019-03-24T07:29:24.951Z,27.50
2019-03-24T07:31:53.689Z,27.50
2019-03-24T07:34:22.532Z,27.60
2019-03-24T07:36:51.120Z,27.50
2019-03-24T07:39:20.069Z,27.20
2019-03-24T07:41:48.754Z,27.80
2019-03-24T07:44:17.448Z,28.00
2019-03-24T07:46:46.201Z,28.40
2019-03-24T07:49:14.894Z,28.60
2019-03-24T07:51:43.749Z,28.90
2019-03-24T07:54:12.370Z,28.50
2019-03-24T07:56:41.072Z,28.50
2019-03-24T07:59:09.896Z,27.70
2019-03-24T08:01:38.718Z,27.90
2019-03-24T08:04:07.469Z,28.10
2019-03-24T08:06:36.155Z,28.60
2019-03-24T08:09:05.914Z,28.80
2019-03-24T08:11:34.627Z,28.70
2019-03-24T08:14:03.463Z,28.70
2019-03-24T08:16:32.067Z,28.70
2019-03-24T08:19:00.683Z,28.10
2019-03-24T08:21:29.454Z,27.90
2019-03-24T08:23:58.331Z,27.70
2019-03-24T08:26:27.008Z,27.80
2019-03-24T08:28:55.790Z,27.80
2019-03-24T08:31:24.509Z,26.90
2019-03-24T08:33:53.185Z,26.60
2019-03-24T08:36:22.023Z,27.50
2019-03-24T08:38:50.778Z,27.40
2019-03-24T08:41:19.652Z,27.30
2019-03-24T08:43:48.476Z,27.20
2019-03-24T08:46:17.277Z,27.60
2019-03-24T08:48:46.017Z,27.70
2019-03-24T08:51:14.755Z,27.50
2019-03-24T08:53:43.535Z,27.40
2019-03-24T08:56:12.188Z,27.20
2019-03-24T08:58:41.120Z,26.80
2019-03-24T09:01:09.943Z,27.40
2019-03-24T09:03:38.734Z,27.20
2019-03-24T09:06:07.519Z,27.60
2019-03-24T09:08:36.228Z,28.10
2019-03-24T09:11:05.192Z,27.90
2019-03-24T09:13:33.939Z,26.50
2019-03-24T09:16:02.596Z,27.10
2019-03-24T09:18:31.134Z,27.80
2019-03-24T09:20:59.840Z,28.10
2019-03-24T09:23:28.502Z,28.00
2019-03-24T09:25:57.214Z,27.70
2019-03-24T09:28:25.880Z,27.90
2019-03-24T09:30:54.587Z,27.90
2019-03-24T09:33:23.269Z,27.70
2019-03-24T09:35:52.014Z,27.20
2019-03-24T09:38:20.947Z,27.10
2019-03-24T09:40:49.740Z,27.10
2019-03-24T09:43:18.676Z,27.20
2019-03-24T09:45:47.195Z,25.40
2019-03-24T09:48:16.098Z,23.80
2019-03-24T09:50:44.879Z,23.90
2019-03-24T09:53:13.764Z,25.50
2019-03-24T09:55:42.477Z,26.40
2019-03-24T09:58:11.217Z,25.40
2019-03-24T10:00:40.036Z,25.30
2019-03-24T10:03:08.811Z,25.70
2019-03-24T10:05:37.675Z,25.80
2019-03-24T10:08:06.275Z,24.60
2019-03-24T10:10:35.102Z,25.50
2019-03-24T10:13:03.887Z,26.40
2019-03-24T10:15:32.851Z,26.80
2019-03-24T10:18:01.329Z,27.40
2019-03-24T10:20:30.130Z,27.70
2019-03-24T10:22:59.025Z,26.50
2019-03-24T10:25:27.711Z,27.30
2019-03-24T10:27:56.640Z,26.10
2019-03-24T10:30:25.173Z,27.10
2019-03-24T10:32:53.851Z,27.60
2019-03-24T10:35:23.535Z,27.70
2019-03-24T10:37:52.275Z,28.10
2019-03-24T10:40:41.593Z,27.70
2019-03-24T10:43:10.373Z,26.40
2019-03-24T10:45:39.101Z,27.70
2019-03-24T10:48:08.030Z,26.40
2019-03-24T10:50:36.707Z,26.10
2019-03-24T10:53:05.523Z,26.80
2019-03-24T10:55:34.292Z,28.10
2019-03-24T10:58:02.941Z,29.10
2019-03-24T11:00:39.765Z,29.50
2019-03-24T11:03:08.796Z,28.90
2019-03-24T11:05:37.385Z,29.80
2019-03-24T11:08:06.031Z,30.00
2019-03-24T11:10:34.949Z,30.50
2019-03-24T11:13:03.747Z,30.20
2019-03-24T11:15:32.504Z,30.60
2019-03-24T11:18:01.108Z,30.50
2019-03-24T11:20:30.016Z,30.40
2019-03-24T11:22:58.977Z,27.70
2019-03-24T11:25:27.691Z,26.60
2019-03-24T11:27:56.280Z,26.50
2019-03-24T11:30:25.013Z,25.50
2019-03-24T11:32:53.535Z,26.40
2019-03-24T11:35:22.215Z,25.90
2019-03-24T11:37:51.061Z,26.60
2019-03-24T11:40:19.792Z,28.20
2019-03-24T11:42:48.486Z,27.50
2019-03-24T11:45:17.208Z,29.00
2019-03-24T11:47:45.958Z,28.20
2019-03-24T11:50:15.089Z,29.00
2019-03-24T11:52:43.899Z,29.70
2019-03-24T11:55:12.652Z,29.80
2019-03-24T11:57:41.423Z,28.30
2019-03-24T12:00:10.881Z,26.80
2019-03-24T12:02:39.624Z,25.40
2019-03-24T12:05:08.692Z,24.90
2019-03-24T12:07:37.356Z,24.60
2019-03-24T12:10:06.991Z,24.50
2019-03-24T12:12:35.788Z,25.40
2019-03-24T12:15:05.481Z,24.70
2019-03-24T12:17:34.180Z,25.90
2019-03-24T12:20:02.799Z,25.90
2019-03-24T12:22:31.492Z,25.30
2019-03-24T12:25:00.414Z,26.50
2019-03-24T12:27:29.232Z,26.50
2019-03-24T12:29:58.012Z,27.50
2019-03-24T12:32:26.787Z,28.20
2019-03-24T12:34:55.509Z,28.60
2019-03-24T12:37:24.238Z,28.20
2019-03-24T12:39:53.081Z,27.70
2019-03-24T12:42:21.731Z,27.80
2019-03-24T12:44:50.767Z,28.00
2019-03-24T12:47:20.030Z,28.50
2019-03-24T12:49:48.704Z,27.60
2019-03-24T12:52:17.428Z,26.10
2019-03-24T12:54:45.896Z,26.10
2019-03-24T12:57:14.817Z,27.70
2019-03-24T12:59:43.824Z,26.60
2019-03-24T13:02:12.652Z,25.60
2019-03-24T13:04:41.328Z,26.30
2019-03-24T13:07:10.083Z,24.50
2019-03-24T13:09:38.764Z,24.50
2019-03-24T13:12:07.392Z,24.50
2019-03-24T13:14:36.420Z,24.90
2019-03-24T13:17:05.204Z,25.10
2019-03-24T13:19:36.024Z,25.50
2019-03-24T13:22:04.449Z,25.90
2019-03-24T13:24:33.064Z,23.60
2019-03-24T13:27:01.653Z,24.10
2019-03-24T13:29:30.308Z,24.70
2019-03-24T13:31:58.918Z,24.30
2019-03-24T13:34:27.727Z,25.10
2019-03-24T13:36:56.467Z,25.80
2019-03-24T13:39:25.201Z,25.30
2019-03-24T13:41:53.850Z,24.90
2019-03-24T13:44:22.636Z,24.90
2019-03-24T13:46:56.266Z,25.60
2019-03-24T13:49:25.220Z,25.40
2019-03-24T13:51:54.019Z,25.40
2019-03-24T13:54:22.824Z,25.30
2019-03-24T13:56:51.686Z,25.20
2019-03-24T13:59:20.499Z,23.60
2019-03-24T14:01:49.509Z,22.70
2019-03-24T14:04:18.344Z,22.40
2019-03-24T14:06:47.051Z,22.80
2019-03-24T14:09:15.755Z,22.80
2019-03-24T14:11:44.622Z,22.50
2019-03-24T14:14:13.276Z,22.80
2019-03-24T14:16:42.026Z,22.50
2019-03-24T14:19:10.765Z,23.00
2019-03-24T14:21:39.311Z,22.60
2019-03-24T14:24:07.995Z,22.80
2019-03-24T14:26:36.727Z,22.20
2019-03-24T14:29:05.355Z,21.40
2019-03-24T14:31:34.102Z,22.50
2019-03-24T14:34:03.105Z,23.20
2019-03-24T14:36:31.813Z,23.20
2019-03-24T14:39:00.414Z,22.80
2019-03-24T14:41:29.516Z,23.20
2019-03-24T14:43:58.378Z,23.20
2019-03-24T14:46:27.161Z,23.10
2019-03-24T14:48:55.962Z,22.80
2019-03-24T14:51:24.324Z,22.80
2019-03-24T14:53:53.467Z,23.40
2019-03-24T14:56:22.375Z,23.60
2019-03-24T14:58:50.986Z,23.60
2019-03-24T15:01:19.685Z,23.40
2019-03-24T15:03:48.439Z,23.20
2019-03-24T15:06:17.260Z,23.50
2019-03-24T15:08:46.127Z,23.50
2019-03-24T15:11:14.952Z,23.60
2019-03-24T15:13:43.608Z,22.10
2019-03-24T15:16:12.303Z,22.10
2019-03-24T15:18:42.160Z,22.50
2019-03-24T15:21:11.574Z,22.30
2019-03-24T15:23:40.295Z,22.70
2019-03-24T15:26:08.786Z,23.20
2019-03-24T15:28:37.531Z,22.80
2019-03-24T15:31:06.257Z,22.70
2019-03-24T15:33:35.003Z,22.70
2019-03-24T15:36:03.655Z,23.00
2019-03-24T15:38:32.311Z,22.40
2019-03-24T15:41:01.155Z,22.60
2019-03-24T15:43:29.776Z,22.70
2019-03-24T15:45:58.574Z,22.70
2019-03-24T15:48:27.346Z,22.50
2019-03-24T15:50:56.141Z,22.30
2019-03-24T15:53:24.745Z,22.40
2019-03-24T15:55:53.460Z,22.40
2019-03-24T15:58:22.088Z,22.20
2019-03-24T16:00:50.906Z,22.10
2019-03-24T16:03:19.834Z,21.80
2019-03-24T16:05:50.081Z,21.50
2019-03-24T16:08:19.023Z,21.60
2019-03-24T16:10:47.822Z,21.70
2019-03-24T16:13:17.572Z,21.40
2019-03-24T16:15:46.401Z,21.30
2019-03-24T16:18:15.125Z,21.60
2019-03-24T16:20:43.852Z,21.70
2019-03-24T16:23:12.477Z,21.60
2019-03-24T16:25:41.305Z,21.00
2019-03-24T16:28:09.917Z,21.10
2019-03-24T16:30:38.503Z,21.30
2019-03-24T16:33:07.307Z,21.50
2019-03-24T16:35:35.642Z,21.10
2019-03-24T16:38:04.446Z,20.90
2019-03-24T16:40:33.150Z,21.00
2019-03-24T16:43:02.021Z,20.70
2019-03-24T16:45:30.908Z,20.90
2019-03-24T16:47:59.548Z,21.00
2019-03-24T16:50:28.377Z,21.00
2019-03-24T16:52:57.224Z,20.80
2019-03-24T16:55:26.030Z,20.70
2019-03-24T16:57:54.861Z,20.60
2019-03-24T17:00:23.262Z,20.10
2019-03-24T17:02:51.944Z,20.20
2019-03-24T17:05:20.483Z,19.80
2019-03-24T17:07:49.172Z,18.90
2019-03-24T17:10:17.806Z,19.00
2019-03-24T17:12:46.635Z,19.40
2019-03-24T17:15:15.774Z,19.10
2019-03-24T17:17:44.494Z,19.00
2019-03-24T17:20:13.110Z,19.20
2019-03-24T17:22:41.909Z,18.80
2019-03-24T17:25:10.861Z,19.00
2019-03-24T17:27:39.470Z,18.80
2019-03-24T17:30:09.902Z,18.70
2019-03-24T17:32:38.765Z,18.70
2019-03-24T17:35:07.779Z,18.90
2019-03-24T17:37:36.568Z,18.80
2019-03-24T17:40:06.844Z,18.90
2019-03-24T17:42:35.676Z,18.00
2019-03-24T17:45:04.915Z,17.40
2019-03-24T17:47:33.755Z,17.80
2019-03-24T17:50:02.563Z,18.20
2019-03-24T17:52:31.238Z,18.10
2019-03-24T17:55:00.357Z,17.50
2019-03-24T17:57:28.916Z,17.30
2019-03-24T17:59:57.700Z,17.10
2019-03-24T18:02:26.578Z,17.50
2019-03-24T18:04:55.489Z,17.30
2019-03-24T18:07:24.194Z,17.60
2019-03-24T18:09:52.929Z,17.80
2019-03-24T18:12:21.738Z,17.60
2019-03-24T18:14:50.530Z,18.00
2019-03-24T18:17:19.284Z,18.00
2019-03-24T18:19:48.116Z,18.30
2019-03-24T18:22:16.816Z,17.90
2019-03-24T18:24:45.688Z,18.00
2019-03-24T18:27:14.259Z,18.10
2019-03-24T18:29:42.963Z,18.10
2019-03-24T18:32:11.824Z,18.20
2019-03-24T18:34:40.689Z,18.10
2019-03-24T18:37:09.659Z,18.20
2019-03-24T18:39:38.472Z,18.00
2019-03-24T18:42:07.075Z,18.20
2019-03-24T18:44:35.684Z,18.20
2019-03-24T18:47:05.175Z,18.40
2019-03-24T18:49:33.783Z,18.40
2019-03-24T18:52:02.310Z,18.30
2019-03-24T18:54:31.048Z,18.30
2019-03-24T18:56:59.843Z,18.20
2019-03-24T18:59:28.503Z,18.20
2019-03-24T19:01:57.260Z,18.10
2019-03-24T19:04:25.846Z,18.20
2019-03-24T19:06:54.476Z,18.20
2019-03-24T19:09:23.352Z,17.80
2019-03-24T19:11:52.083Z,17.80
2019-03-24T19:14:20.382Z,17.70
2019-03-24T19:16:50.286Z,17.60
2019-03-24T19:19:18.975Z,17.60
2019-03-24T19:21:47.696Z,17.70
2019-03-24T19:24:16.548Z,17.70
2019-03-24T19:26:45.299Z,17.70
2019-03-24T19:29:13.685Z,17.60
2019-03-24T19:31:42.560Z,17.60
2019-03-24T19:34:11.276Z,17.60
2019-03-24T19:36:39.954Z,17.40
2019-03-24T19:39:09.171Z,17.40
2019-03-24T19:41:37.583Z,17.30
2019-03-24T19:44:06.258Z,17.30
2019-03-24T19:46:35.302Z,17.30
2019-03-24T19:49:03.988Z,17.30
2019-03-24T19:51:32.840Z,17.30
2019-03-24T19:54:05.668Z,16.90
2019-03-24T19:56:43.223Z,16.80
2019-03-24T19:59:14.932Z,16.90
2019-03-24T20:01:43.657Z,17.00
2019-03-24T20:04:12.455Z,16.80
2019-03-24T20:06:41.329Z,16.60
2019-03-24T20:09:09.664Z,16.20
2019-03-24T20:11:38.462Z,16.10
2019-03-24T20:14:09.956Z,16.10
2019-03-24T20:16:38.203Z,16.20
2019-03-24T20:19:07.033Z,16.30
2019-03-24T20:21:35.763Z,16.30
2019-03-24T20:24:04.701Z,16.20
2019-03-24T20:26:33.378Z,16.20
2019-03-24T20:29:02.290Z,16.00
2019-03-24T20:31:30.961Z,15.80
2019-03-24T20:33:59.629Z,15.80
2019-03-24T20:36:28.546Z,15.50
2019-03-24T20:38:57.338Z,15.60
2019-03-24T20:41:44.937Z,15.70
2019-03-24T20:44:13.634Z,15.80
2019-03-24T20:47:01.344Z,15.90
2019-03-24T20:49:30.146Z,15.80
2019-03-24T20:51:58.955Z,15.90
2019-03-24T20:54:27.710Z,16.10
2019-03-24T20:56:56.456Z,16.20
2019-03-24T20:59:24.996Z,16.20
2019-03-24T21:01:53.741Z,16.10
2019-03-24T21:04:22.295Z,16.20
2019-03-24T21:06:50.983Z,16.20
2019-03-24T21:09:19.700Z,16.10
2019-03-24T21:11:48.449Z,16.20
2019-03-24T21:14:17.104Z,16.20
2019-03-24T21:16:45.965Z,16.10
2019-03-24T21:19:14.792Z,15.80
2019-03-24T21:21:43.508Z,15.80
2019-03-24T21:24:12.307Z,15.80
2019-03-24T21:26:41.074Z,15.80
2019-03-24T21:29:09.841Z,15.80
2019-03-24T21:31:38.553Z,15.80
2019-03-24T21:34:07.103Z,15.70
2019-03-24T21:36:35.775Z,15.80
2019-03-24T21:39:06.848Z,15.80
2019-03-24T21:41:35.531Z,15.80
2019-03-24T21:44:04.232Z,15.80
2019-03-24T21:46:33.110Z,15.80
2019-03-24T21:49:02.030Z,15.70
2019-03-24T21:51:30.776Z,15.80
2019-03-24T21:53:59.446Z,15.80
2019-03-24T21:56:28.299Z,15.80
2019-03-24T21:58:57.022Z,16.00
2019-03-24T22:01:25.824Z,16.00
2019-03-24T22:03:54.582Z,16.10
2019-03-24T22:06:23.298Z,16.10
2019-03-24T22:08:52.112Z,16.00
2019-03-24T22:11:20.746Z,15.80
2019-03-24T22:13:49.481Z,15.90
2019-03-24T22:16:18.241Z,15.60
2019-03-24T22:18:46.820Z,15.30
2019-03-24T22:21:15.413Z,15.30
2019-03-24T22:23:52.271Z,15.40
2019-03-24T22:26:14.674Z,15.50
2019-03-24T22:28:43.403Z,15.60
2019-03-24T22:31:12.041Z,15.70
2019-03-24T22:33:40.844Z,15.70
2019-03-24T22:36:09.470Z,15.60
2019-03-24T22:38:38.048Z,15.50
2019-03-24T22:41:06.732Z,15.50
2019-03-24T22:43:35.623Z,15.60
2019-03-24T22:46:04.252Z,15.60
2019-03-24T22:48:33.057Z,15.30
2019-03-24T22:51:03.668Z,15.30
2019-03-24T22:53:32.320Z,15.00
2019-03-24T22:56:00.942Z,15.10
2019-03-24T22:58:29.519Z,15.20
2019-03-24T23:00:58.558Z,15.20
2019-03-24T23:03:27.419Z,15.20
2019-03-24T23:05:56.019Z,15.20
2019-03-24T23:08:24.551Z,15.20
2019-03-24T23:10:53.274Z,15.20
2019-03-24T23:13:21.995Z,15.10
2019-03-24T23:15:50.922Z,15.20
2019-03-24T23:18:19.657Z,15.20
2019-03-24T23:20:48.447Z,15.00
2019-03-24T23:23:17.154Z,15.10
2019-03-24T23:25:45.895Z,15.00
2019-03-24T23:28:14.506Z,15.00
2019-03-24T23:30:43.303Z,15.00
2019-03-24T23:33:12.249Z,14.90
2019-03-24T23:35:40.971Z,14.80
2019-03-24T23:38:09.478Z,14.70
2019-03-24T23:40:37.897Z,14.90
2019-03-24T23:43:06.720Z,14.60
2019-03-24T23:45:35.621Z,14.70
2019-03-24T23:48:04.543Z,14.70
2019-03-24T23:50:33.182Z,14.60
2019-03-24T23:53:02.071Z,14.50
2019-03-24T23:55:30.891Z,14.50
2019-03-24T23:57:59.450Z,14.30
